createdAt,value
2023-03-08T00:01:37.938Z,3.60
2023-03-08T00:04:06.426Z,4.82
2023-03-08T00:06:36.078Z,2.45
2023-03-08T00:09:04.681Z,3.40
2023-03-08T00:11:32.903Z,4.35
2023-03-08T00:14:01.741Z,3.53
2023-03-08T00:16:30.074Z,4.45
2023-03-08T00:18:58.248Z,6.10
2023-03-08T00:21:26.606Z,5.72
2023-03-08T00:23:56.313Z,4.75
2023-03-08T00:26:27.245Z,5.55
2023-03-08T00:28:55.704Z,3.60
2023-03-08T00:31:24.407Z,7.82
2023-03-08T00:34:01.280Z,4.95
2023-03-08T00:36:33.961Z,3.63
2023-03-08T00:39:03.632Z,2.35
2023-03-08T00:41:32.294Z,5.82
2023-03-08T00:44:00.625Z,1.55
2023-03-08T00:46:31.644Z,0.55
2023-03-08T00:49:04.237Z,4.80
2023-03-08T00:51:37.289Z,0.52
2023-03-08T00:54:07.584Z,1.40
2023-03-08T00:56:36.087Z,1.08
2023-03-08T00:59:04.554Z,4.00
2023-03-08T01:01:32.884Z,2.13
2023-03-08T01:04:01.296Z,0.73
2023-03-08T01:06:29.650Z,0.43
2023-03-08T01:08:58.336Z,1.60
2023-03-08T01:11:28.404Z,2.50
2023-03-08T01:13:57.019Z,1.08
2023-03-08T01:16:26.922Z,0.60
2023-03-08T01:18:55.791Z,2.85
2023-03-08T01:21:24.456Z,1.70
2023-03-08T01:23:55.090Z,1.63
2023-03-08T01:26:24.801Z,0.95
2023-03-08T01:29:01.159Z,1.00
2023-03-08T01:31:30.448Z,2.08
2023-03-08T01:34:00.603Z,1.05
2023-03-08T01:36:29.328Z,0.80
2023-03-08T01:39:00.119Z,2.47
2023-03-08T01:41:29.556Z,1.38
2023-03-08T01:44:03.355Z,1.40
2023-03-08T01:46:34.026Z,2.65
2023-03-08T01:49:13.054Z,1.10
2023-03-08T01:51:42.051Z,2.40
2023-03-08T01:54:12.683Z,1.58
2023-03-08T01:56:41.144Z,2.38
2023-03-08T01:59:10.971Z,3.55
2023-03-08T02:01:41.862Z,1.50
2023-03-08T02:04:11.302Z,3.15
2023-03-08T02:06:39.830Z,4.88
2023-03-08T02:09:08.817Z,2.50
2023-03-08T02:11:41.849Z,3.97
2023-03-08T02:14:11.737Z,3.55
2023-03-08T02:16:43.797Z,3.67
2023-03-08T02:19:14.202Z,2.75
2023-03-08T02:21:42.522Z,4.30
2023-03-08T02:24:20.032Z,4.45
2023-03-08T02:26:52.103Z,4.05
2023-03-08T02:29:21.122Z,5.70
2023-03-08T02:31:49.514Z,5.45
2023-03-08T02:34:17.752Z,7.57
2023-03-08T02:36:47.993Z,7.00
2023-03-08T02:39:18.621Z,7.07
2023-03-08T02:41:50.351Z,5.35
2023-03-08T02:44:18.889Z,3.92
2023-03-08T02:46:51.918Z,6.10
2023-03-08T02:49:20.293Z,6.53
2023-03-08T02:51:52.063Z,7.03
2023-03-08T02:54:20.475Z,7.07
2023-03-08T02:56:50.134Z,6.03
2023-03-08T02:59:18.455Z,6.32
2023-03-08T03:01:49.266Z,5.55
2023-03-08T03:04:17.714Z,5.78
2023-03-08T03:06:46.651Z,6.18
2023-03-08T03:09:15.990Z,5.88
2023-03-08T03:11:44.371Z,6.80
2023-03-08T03:14:14.665Z,6.47
2023-03-08T03:16:45.043Z,6.95
2023-03-08T03:19:13.984Z,7.22
2023-03-08T03:21:42.457Z,7.38
2023-03-08T03:24:11.000Z,8.10
2023-03-08T03:26:50.671Z,7.10
2023-03-08T03:29:20.878Z,8.45
2023-03-08T03:31:55.652Z,9.77
2023-03-08T03:34:24.690Z,9.25
2023-03-08T03:36:53.460Z,11.38
2023-03-08T03:39:22.181Z,9.52
2023-03-08T03:41:50.850Z,12.80
2023-03-08T03:44:22.678Z,12.15
2023-03-08T03:46:51.776Z,11.25
2023-03-08T03:49:25.278Z,13.90
2023-03-08T03:51:53.728Z,11.98
2023-03-08T03:54:28.480Z,13.35
2023-03-08T03:57:00.478Z,11.90
2023-03-08T03:59:34.226Z,12.20
2023-03-08T04:02:03.523Z,13.45
2023-03-08T04:04:40.461Z,14.30
2023-03-08T04:07:12.211Z,12.25
2023-03-08T04:09:44.905Z,13.82
2023-03-08T04:12:19.650Z,14.50
2023-03-08T04:14:49.234Z,15.93
2023-03-08T04:17:23.632Z,16.17
2023-03-08T04:19:54.889Z,21.33
2023-03-08T04:22:23.768Z,19.60
2023-03-08T04:25:04.264Z,19.98
2023-03-08T04:27:45.884Z,20.83
2023-03-08T04:30:16.282Z,23.10
2023-03-08T04:32:45.566Z,19.00
2023-03-08T04:35:14.707Z,18.88
2023-03-08T04:37:47.661Z,20.38
2023-03-08T04:40:19.233Z,20.08
2023-03-08T04:42:54.684Z,20.55
2023-03-08T04:45:29.375Z,21.27
2023-03-08T04:48:00.610Z,17.15
2023-03-08T04:50:29.572Z,18.80
2023-03-08T04:52:59.118Z,23.90
2023-03-08T04:55:32.221Z,28.08
2023-03-08T04:58:03.231Z,21.75
2023-03-08T05:00:34.676Z,22.15
2023-03-08T05:03:03.520Z,23.42
2023-03-08T05:05:31.861Z,22.30
2023-03-08T05:08:05.251Z,21.50
2023-03-08T05:10:35.857Z,20.95
2023-03-08T05:13:04.095Z,22.42
2023-03-08T05:15:32.517Z,24.40
2023-03-08T05:18:02.883Z,24.25
2023-03-08T05:20:33.537Z,23.92
2023-03-08T05:23:01.763Z,24.48
2023-03-08T05:25:36.337Z,26.35
2023-03-08T05:28:04.628Z,28.92
2023-03-08T05:30:35.202Z,31.90
2023-03-08T05:33:09.676Z,25.95
2023-03-08T05:35:38.834Z,22.58
2023-03-08T05:38:08.903Z,25.25
2023-03-08T05:40:39.978Z,27.05
2023-03-08T05:43:08.997Z,26.92
2023-03-08T05:45:38.089Z,27.25
2023-03-08T05:48:09.067Z,24.55
2023-03-08T05:50:39.084Z,21.65
2023-03-08T05:53:09.810Z,21.42
2023-03-08T05:55:38.557Z,23.92
2023-03-08T05:58:09.174Z,26.02
2023-03-08T06:00:40.463Z,25.92
2023-03-08T06:03:10.241Z,29.90
2023-03-08T06:05:40.974Z,29.02
2023-03-08T06:08:11.855Z,42.70
2023-03-08T06:10:40.606Z,28.08
2023-03-08T06:13:09.224Z,28.25
2023-03-08T06:15:40.153Z,28.75
2023-03-08T06:18:09.872Z,31.35
2023-03-08T06:20:43.041Z,28.02
2023-03-08T06:23:11.768Z,27.67
2023-03-08T06:25:40.778Z,30.98
2023-03-08T06:28:09.747Z,28.02
2023-03-08T06:30:40.718Z,26.05
2023-03-08T06:33:10.895Z,26.90
2023-03-08T06:35:39.283Z,32.30
2023-03-08T06:38:07.949Z,33.13
2023-03-08T06:40:38.060Z,34.25
2023-03-08T06:43:08.589Z,36.10
2023-03-08T06:45:39.873Z,36.85
2023-03-08T06:48:08.928Z,40.13
2023-03-08T06:50:41.066Z,37.45
2023-03-08T06:53:11.231Z,37.22
2023-03-08T06:55:48.628Z,39.72
2023-03-08T06:58:17.329Z,33.13
2023-03-08T07:00:45.612Z,31.13
2023-03-08T07:03:14.105Z,33.38
2023-03-08T07:05:44.202Z,31.33
2023-03-08T07:08:12.402Z,30.33
2023-03-08T07:10:40.783Z,32.30
2023-03-08T07:13:09.183Z,31.15
2023-03-08T07:15:41.356Z,31.98
2023-03-08T07:18:12.385Z,31.50
2023-03-08T07:20:48.614Z,28.63
2023-03-08T07:23:20.628Z,30.35
2023-03-08T07:25:53.531Z,31.27
2023-03-08T07:28:25.225Z,32.15
2023-03-08T07:30:54.398Z,34.33
2023-03-08T07:33:23.150Z,32.63
2023-03-08T07:35:57.793Z,28.80
2023-03-08T07:38:27.541Z,34.40
2023-03-08T07:40:56.479Z,30.48
2023-03-08T07:43:25.001Z,33.97
2023-03-08T07:46:11.899Z,30.23
2023-03-08T07:48:40.623Z,34.25
2023-03-08T07:51:10.380Z,31.42
2023-03-08T07:53:40.302Z,34.05
2023-03-08T07:56:09.057Z,31.88
2023-03-08T07:58:37.618Z,32.90
2023-03-08T08:01:11.645Z,33.55
2023-03-08T08:03:42.205Z,36.30
2023-03-08T08:06:10.946Z,31.95
2023-03-08T08:08:40.825Z,30.95
2023-03-08T08:11:13.207Z,32.53
2023-03-08T08:13:41.626Z,30.65
2023-03-08T08:16:10.340Z,30.15
2023-03-08T08:18:38.984Z,32.70
2023-03-08T08:21:11.016Z,33.22
2023-03-08T08:23:41.464Z,36.65
2023-03-08T08:26:10.523Z,31.58
2023-03-08T08:28:39.734Z,37.80
2023-03-08T08:31:12.155Z,36.63
2023-03-08T08:33:42.965Z,32.85
2023-03-08T08:36:12.839Z,31.08
2023-03-08T08:38:43.386Z,32.58
2023-03-08T08:41:11.866Z,33.53
2023-03-08T08:43:40.671Z,31.88
2023-03-08T08:46:09.092Z,27.20
2023-03-08T08:48:38.698Z,27.00
2023-03-08T08:51:14.150Z,27.55
2023-03-08T08:53:44.211Z,28.10
2023-03-08T08:56:26.606Z,25.58
2023-03-08T08:58:57.341Z,29.30
2023-03-08T09:01:31.060Z,24.25
2023-03-08T09:03:59.834Z,24.05
2023-03-08T09:06:29.363Z,22.13
2023-03-08T09:08:59.787Z,22.48
2023-03-08T09:11:29.268Z,23.73
2023-03-08T09:13:57.548Z,21.73
2023-03-08T09:16:29.248Z,22.52
2023-03-08T09:18:58.261Z,20.15
2023-03-08T09:21:30.004Z,23.95
2023-03-08T09:24:00.861Z,20.92
2023-03-08T09:26:30.257Z,21.25
2023-03-08T09:28:59.686Z,22.25
2023-03-08T09:31:28.049Z,21.55
2023-03-08T09:33:56.327Z,20.67
2023-03-08T09:36:24.615Z,22.83
2023-03-08T09:38:56.258Z,22.60
2023-03-08T09:41:36.731Z,20.20
2023-03-08T09:44:11.237Z,17.50
2023-03-08T09:46:42.316Z,22.40
2023-03-08T09:49:18.164Z,18.60
2023-03-08T09:51:48.196Z,16.77
2023-03-08T09:54:18.993Z,21.98
2023-03-08T09:56:52.105Z,16.25
2023-03-08T09:59:22.487Z,18.48
2023-03-08T10:01:53.543Z,15.52
2023-03-08T10:04:27.499Z,14.43
2023-03-08T10:07:01.467Z,15.98
2023-03-08T10:09:33.180Z,16.52
2023-03-08T10:12:08.287Z,13.15
2023-03-08T10:14:45.777Z,12.82
2023-03-08T10:17:16.634Z,15.27
2023-03-08T10:19:48.085Z,14.10
2023-03-08T10:22:18.291Z,13.40
2023-03-08T10:24:55.169Z,15.80
2023-03-08T10:27:26.365Z,14.32
2023-03-08T10:29:58.092Z,15.73
2023-03-08T10:32:31.565Z,14.10
2023-03-08T10:35:07.130Z,15.43
2023-03-08T10:37:38.519Z,14.32
2023-03-08T10:40:13.747Z,15.60
2023-03-08T10:42:48.724Z,11.73
2023-03-08T10:45:22.006Z,14.63
2023-03-08T10:47:55.808Z,14.63
2023-03-08T10:50:27.873Z,13.27
2023-03-08T10:52:56.510Z,15.93
2023-03-08T10:55:25.891Z,13.02
2023-03-08T10:57:59.820Z,14.00
2023-03-08T11:00:35.668Z,12.38
2023-03-08T11:03:12.365Z,16.10
2023-03-08T11:05:40.882Z,14.90
2023-03-08T11:08:18.442Z,14.10
2023-03-08T11:10:49.060Z,13.65
2023-03-08T11:13:33.424Z,14.00
2023-03-08T11:16:08.950Z,11.27
2023-03-08T11:18:44.888Z,13.13
2023-03-08T11:21:15.580Z,13.00
2023-03-08T11:23:47.656Z,14.45
2023-03-08T11:26:22.501Z,13.73
2023-03-08T11:28:58.684Z,13.70
2023-03-08T11:31:34.367Z,12.20
2023-03-08T11:34:22.989Z,21.02
2023-03-08T11:36:56.403Z,13.82
2023-03-08T11:39:28.370Z,14.05
2023-03-08T11:42:02.597Z,13.48
2023-03-08T11:44:48.928Z,16.40
2023-03-08T11:47:36.237Z,14.73
2023-03-08T11:50:13.122Z,14.32
2023-03-08T11:52:46.573Z,15.00
2023-03-08T11:55:24.944Z,12.25
2023-03-08T11:57:57.410Z,15.60
2023-03-08T12:00:30.134Z,16.35
2023-03-08T12:03:05.605Z,15.38
2023-03-08T12:05:48.966Z,13.52
2023-03-08T12:08:18.909Z,12.65
2023-03-08T12:10:50.717Z,13.27
2023-03-08T12:13:24.880Z,14.30
2023-03-08T12:15:57.933Z,14.88
2023-03-08T12:18:29.817Z,16.42
2023-03-08T12:21:03.766Z,14.50
2023-03-08T12:23:35.754Z,16.40
2023-03-08T12:26:07.678Z,16.67
2023-03-08T12:28:42.820Z,13.68
2023-03-08T12:31:30.306Z,13.00
2023-03-08T12:34:01.693Z,15.32
2023-03-08T12:36:44.240Z,14.40
2023-03-08T12:39:26.692Z,13.07
2023-03-08T12:42:04.298Z,10.80
2023-03-08T12:44:35.252Z,13.43
2023-03-08T12:47:05.029Z,11.32
2023-03-08T12:49:35.170Z,15.00
2023-03-08T12:52:08.913Z,12.73
2023-03-08T12:54:37.783Z,11.45
2023-03-08T12:57:16.147Z,13.82
2023-03-08T12:59:44.834Z,13.93
2023-03-08T13:02:30.749Z,13.35
2023-03-08T13:05:06.979Z,12.55
2023-03-08T13:07:43.863Z,14.48
2023-03-08T13:10:29.930Z,12.30
2023-03-08T13:13:18.496Z,12.65
2023-03-08T13:16:06.460Z,12.57
2023-03-08T13:18:37.107Z,20.98
2023-03-08T13:21:13.816Z,17.52
2023-03-08T13:23:45.413Z,19.35
2023-03-08T13:26:18.252Z,16.02
2023-03-08T13:28:48.539Z,23.50
2023-03-08T13:31:20.138Z,16.63
2023-03-08T13:33:49.693Z,15.68
2023-03-08T13:36:20.230Z,15.85
2023-03-08T13:38:58.455Z,16.65
2023-03-08T13:41:34.149Z,17.50
2023-03-08T13:44:03.003Z,16.95
2023-03-08T13:46:31.568Z,15.43
2023-03-08T13:49:00.151Z,13.80
2023-03-08T13:51:29.545Z,18.45
2023-03-08T13:54:01.452Z,14.13
2023-03-08T13:56:30.003Z,14.55
2023-03-08T13:58:59.101Z,13.57
2023-03-08T14:01:28.236Z,17.27
2023-03-08T14:03:58.385Z,16.80
2023-03-08T14:06:33.389Z,13.70
2023-03-08T14:09:07.731Z,15.70
2023-03-08T14:11:38.114Z,18.25
2023-03-08T14:14:09.347Z,17.55
2023-03-08T14:16:38.952Z,16.10
2023-03-08T14:19:16.428Z,13.68
2023-03-08T14:21:49.700Z,16.25
2023-03-08T14:24:21.776Z,16.65
2023-03-08T14:26:57.835Z,17.25
2023-03-08T14:29:29.255Z,14.07
2023-03-08T14:31:59.083Z,21.45
2023-03-08T14:34:28.329Z,14.60
2023-03-08T14:36:58.309Z,20.65
2023-03-08T14:39:29.192Z,18.88
2023-03-08T14:41:57.908Z,14.85
2023-03-08T14:44:28.103Z,18.98
2023-03-08T14:46:59.248Z,20.00
2023-03-08T14:49:28.666Z,18.08
2023-03-08T14:51:57.083Z,20.45
2023-03-08T14:54:34.928Z,17.50
2023-03-08T14:57:14.924Z,17.70
2023-03-08T14:59:43.687Z,20.95
2023-03-08T15:02:13.051Z,18.42
2023-03-08T15:04:41.991Z,21.38
2023-03-08T15:07:16.798Z,23.85
2023-03-08T15:09:49.774Z,22.67
2023-03-08T15:12:32.701Z,24.88
2023-03-08T15:15:01.136Z,20.13
2023-03-08T15:17:29.577Z,21.08
2023-03-08T15:19:57.842Z,22.05
2023-03-08T15:22:26.350Z,25.35
2023-03-08T15:24:54.765Z,23.05
2023-03-08T15:27:24.656Z,23.15
2023-03-08T15:29:53.099Z,18.10
2023-03-08T15:32:28.197Z,17.63
2023-03-08T15:34:56.620Z,20.17
2023-03-08T15:37:27.308Z,16.33
2023-03-08T15:39:55.590Z,12.30
2023-03-08T15:42:25.349Z,18.88
2023-03-08T15:44:53.801Z,17.33
2023-03-08T15:47:22.083Z,21.80
2023-03-08T15:49:51.746Z,23.33
2023-03-08T15:52:24.669Z,26.30
2023-03-08T15:54:54.725Z,26.10
2023-03-08T15:57:23.748Z,23.40
2023-03-08T16:00:06.298Z,28.13
2023-03-08T16:02:39.759Z,26.13
2023-03-08T16:05:09.291Z,30.73
2023-03-08T16:07:38.071Z,24.23
2023-03-08T16:10:07.109Z,26.75
2023-03-08T16:12:39.039Z,29.13
2023-03-08T16:15:09.817Z,25.60
2023-03-08T16:17:38.766Z,24.92
2023-03-08T16:20:10.113Z,27.27
2023-03-08T16:22:39.010Z,23.17
2023-03-08T16:25:07.848Z,26.83
2023-03-08T16:27:38.119Z,26.70
2023-03-08T16:30:07.467Z,22.48
2023-03-08T16:32:39.892Z,24.63
2023-03-08T16:35:09.118Z,19.75
2023-03-08T16:37:39.793Z,22.17
2023-03-08T16:40:09.033Z,20.60
2023-03-08T16:42:37.543Z,21.20
2023-03-08T16:45:06.817Z,17.25
2023-03-08T16:47:35.085Z,17.73
2023-03-08T16:50:04.927Z,18.95
2023-03-08T16:52:33.326Z,20.27
2023-03-08T16:55:01.586Z,18.05
2023-03-08T16:57:29.868Z,17.55
2023-03-08T17:00:00.661Z,17.25
2023-03-08T17:02:33.207Z,19.90
2023-03-08T17:05:01.719Z,18.23
2023-03-08T17:07:31.382Z,16.55
2023-03-08T17:09:59.653Z,18.95
2023-03-08T17:12:28.262Z,19.45
2023-03-08T17:14:56.717Z,16.13
2023-03-08T17:17:25.066Z,22.42
2023-03-08T17:19:54.080Z,19.30
2023-03-08T17:22:25.753Z,18.17
2023-03-08T17:24:55.549Z,16.45
2023-03-08T17:27:24.794Z,19.92
2023-03-08T17:29:53.990Z,15.70
2023-03-08T17:32:22.345Z,17.90
2023-03-08T17:34:50.738Z,15.85
2023-03-08T17:37:19.015Z,17.55
2023-03-08T17:39:47.302Z,16.70
2023-03-08T17:42:21.427Z,17.13
2023-03-08T17:44:49.899Z,17.13
2023-03-08T17:47:18.222Z,17.48
2023-03-08T17:49:46.634Z,19.58
2023-03-08T17:52:15.993Z,15.55
2023-03-08T17:54:44.454Z,21.25
2023-03-08T17:57:12.715Z,18.83
2023-03-08T17:59:42.321Z,17.90
2023-03-08T18:02:11.915Z,16.42
2023-03-08T18:04:43.973Z,24.20
2023-03-08T18:07:12.452Z,18.95
2023-03-08T18:09:40.820Z,17.48
2023-03-08T18:12:10.205Z,22.25
2023-03-08T18:14:40.115Z,20.45
2023-03-08T18:17:10.237Z,23.38
2023-03-08T18:19:39.016Z,20.38
2023-03-08T18:22:09.928Z,19.67
2023-03-08T18:24:38.732Z,20.52
2023-03-08T18:27:07.226Z,19.55
2023-03-08T18:29:36.301Z,30.00
2023-03-08T18:32:05.093Z,20.48
2023-03-08T18:34:35.044Z,19.83
2023-03-08T18:37:03.468Z,23.45
2023-03-08T18:39:31.758Z,23.25
2023-03-08T18:42:01.399Z,24.92
2023-03-08T18:44:32.816Z,20.67
2023-03-08T18:47:01.142Z,23.48
2023-03-08T18:49:29.623Z,23.08
2023-03-08T18:52:01.553Z,23.40
2023-03-08T18:54:29.857Z,20.05
2023-03-08T18:56:59.253Z,21.27
2023-03-08T18:59:33.189Z,21.17
2023-03-08T19:02:01.719Z,21.00
2023-03-08T19:04:29.981Z,22.80
2023-03-08T19:07:01.589Z,22.10
2023-03-08T19:09:29.810Z,22.15
2023-03-08T19:11:58.239Z,21.75
2023-03-08T19:14:26.445Z,20.67
2023-03-08T19:16:58.100Z,20.42
2023-03-08T19:19:26.368Z,21.17
2023-03-08T19:21:54.620Z,19.38
2023-03-08T19:24:24.237Z,19.23
2023-03-08T19:26:53.181Z,19.90
2023-03-08T19:29:22.650Z,17.85
2023-03-08T19:31:51.685Z,24.38
2023-03-08T19:34:20.502Z,22.95
2023-03-08T19:36:53.362Z,21.55
2023-03-08T19:39:25.249Z,22.17
2023-03-08T19:41:55.823Z,22.08
2023-03-08T19:44:29.241Z,19.38
2023-03-08T19:46:57.737Z,24.13
2023-03-08T19:49:29.378Z,22.73
2023-03-08T19:52:06.925Z,19.75
2023-03-08T19:54:35.395Z,23.25
2023-03-08T19:57:05.717Z,21.55
2023-03-08T19:59:36.602Z,21.33
2023-03-08T20:02:09.998Z,17.13
2023-03-08T20:04:38.750Z,21.85
2023-03-08T20:07:09.628Z,22.65
2023-03-08T20:09:37.860Z,23.23
2023-03-08T20:12:07.729Z,18.90
2023-03-08T20:14:36.575Z,20.70
2023-03-08T20:17:05.637Z,22.65
2023-03-08T20:19:34.212Z,22.85
2023-03-08T20:22:05.323Z,22.30
2023-03-08T20:24:33.576Z,23.33
2023-03-08T20:27:01.955Z,23.23
2023-03-08T20:29:34.528Z,24.98
2023-03-08T20:32:03.066Z,27.05
2023-03-08T20:34:35.573Z,26.23
2023-03-08T20:37:03.969Z,27.45
2023-03-08T20:39:36.326Z,27.35
2023-03-08T20:42:06.601Z,26.42
2023-03-08T20:44:39.164Z,19.88
2023-03-08T20:47:07.690Z,27.60
2023-03-08T20:49:37.394Z,23.77
2023-03-08T20:52:08.871Z,25.73
2023-03-08T20:54:39.036Z,24.02
2023-03-08T20:57:09.863Z,21.77
2023-03-08T20:59:39.691Z,22.15
2023-03-08T21:02:08.832Z,23.13
2023-03-08T21:04:37.594Z,23.02
2023-03-08T21:07:09.109Z,22.10
2023-03-08T21:09:37.608Z,24.33
2023-03-08T21:12:07.989Z,21.73
2023-03-08T21:14:36.292Z,21.58
2023-03-08T21:17:06.288Z,20.48
2023-03-08T21:19:34.631Z,21.98
2023-03-08T21:22:03.375Z,18.10
2023-03-08T21:24:32.065Z,19.38
2023-03-08T21:27:02.289Z,17.02
2023-03-08T21:29:30.623Z,15.05
2023-03-08T21:31:59.431Z,17.10
2023-03-08T21:34:29.213Z,20.30
2023-03-08T21:36:57.589Z,17.38
2023-03-08T21:39:26.822Z,18.15
2023-03-08T21:41:57.180Z,18.63
2023-03-08T21:44:25.564Z,16.88
2023-03-08T21:46:55.296Z,16.55
2023-03-08T21:49:29.113Z,16.48
2023-03-08T21:51:59.542Z,15.55
2023-03-08T21:54:28.642Z,18.40
2023-03-08T21:56:59.153Z,14.80
2023-03-08T21:59:28.941Z,15.40
2023-03-08T22:01:58.802Z,13.60
2023-03-08T22:04:27.713Z,14.55
2023-03-08T22:06:58.302Z,16.40
2023-03-08T22:09:29.338Z,16.83
2023-03-08T22:11:59.845Z,15.07
2023-03-08T22:14:28.473Z,17.58
2023-03-08T22:17:00.616Z,18.27
2023-03-08T22:19:29.065Z,17.73
2023-03-08T22:21:58.582Z,13.02
2023-03-08T22:24:32.808Z,15.70
2023-03-08T22:27:01.575Z,17.85
2023-03-08T22:29:29.961Z,15.75
2023-03-08T22:31:58.513Z,16.85
2023-03-08T22:34:27.006Z,18.80
2023-03-08T22:36:55.308Z,21.20
2023-03-08T22:39:24.002Z,18.88
2023-03-08T22:41:53.909Z,19.63
2023-03-08T22:44:22.152Z,17.55
2023-03-08T22:46:50.412Z,18.95
2023-03-08T22:49:18.718Z,20.02
2023-03-08T22:51:47.012Z,21.30
2023-03-08T22:54:16.394Z,19.05
2023-03-08T22:56:49.700Z,23.55
2023-03-08T22:59:22.083Z,20.90
2023-03-08T23:01:50.506Z,22.05
2023-03-08T23:04:21.242Z,17.25
2023-03-08T23:06:49.529Z,22.17
2023-03-08T23:09:18.068Z,22.98
2023-03-08T23:11:47.137Z,19.83
2023-03-08T23:14:15.503Z,23.00
2023-03-08T23:16:48.129Z,22.85
2023-03-08T23:19:19.086Z,21.25
2023-03-08T23:21:47.499Z,18.23
2023-03-08T23:24:16.126Z,19.38
2023-03-08T23:26:45.883Z,20.42
2023-03-08T23:29:15.318Z,18.42
2023-03-08T23:31:46.496Z,18.77
2023-03-08T23:34:14.846Z,16.38
2023-03-08T23:36:43.313Z,18.98
2023-03-08T23:39:13.937Z,17.52
2023-03-08T23:41:42.735Z,18.42
2023-03-08T23:44:11.736Z,22.90
2023-03-08T23:46:40.277Z,21.02
2023-03-08T23:49:10.940Z,21.10
2023-03-08T23:51:39.581Z,21.67
2023-03-08T23:54:07.877Z,18.85
2023-03-08T23:56:38.974Z,21.50
2023-03-08T23:59:11.419Z,21.50
